メインページ
METAR-TAF:

METAR-TAF

空港 :

東京 / 羽田国際空港, 日本

東京国際空港

緯度: 35-33N, 経度: 139-47E, 海抜: 5m

現時点の気象観測

当レポートは11分前の13:30(UTC)に作成
の風 14kt
気温 9°C
湿度 43%
気圧 1022 hPa
視程10km以上
1,500メートル以下は雲なし、積乱雲なし

METAR: RJTT 241330Z 35014KT CAVOK 09/M03 Q1022 NOSIG RMK A3019

時間: 22:41 (13:41 UTC)

予報

当レポートは2時間35分前の11:06(UTC)に作成
予報は24日の 12時(UTC)から 25日の 18時(UTC)まで有効
の風 16kt
視程10km以上
高度3000ftの雲はほとんどない
25日の 03時(UTC)から 25日の 06時(UTC)まで徐々に
の風 12kt
25日の 12時(UTC)から 25日の 15時(UTC)まで徐々に
北/北東の風 10kt

TAF: RJTT 241106Z 2412/2518 36016KT 9999 FEW030 BECMG 2503/2506 09012KT BECMG 2512/2515 02010KT

4,000以上の空港の気象観測と天気予報(METAR報とTAF報)

利用可能な観測所は地図上に黄色い丸と赤い丸で示す。

丸の上にカーソルを重ねると観測所名を参照できる。

次にクリックすると気象観測と天気予報を参照できる。

マップの切り替え:黒色「×」印の緑ボタンをクリックして拡大、「-」印の緑ボタンをクリックして縮小、緑色の三角印をクリックして隣りの地図に切り替え


METAR-TAF: